Kyoto Maru — JD3149 — position and weather

sailwx.info

Track history (hours):
 
Tides and Currents Weather Stations Pressure Air Temp Water Temp Dewpoint Dewpoint Depression Visibility Wind Speed Wind Dir Waves Ship Positions

Kyoto Maru

Last reported at 2014-Oct-02 03:34 UTC. Time now 2014-Oct-02 04:27 UTC.
Position N 35°27' E 139°39'.

Length 34 m; draft 3.8 m.

Type: Tug. MMSI: 431002219.

Date/timePositionNaut miles runAvg speedWind from/ knotsBaromVisibWave heightAir tempDewpointWater temp
2014-Oct-02 03:34N 35°27' E 139°39'0 0.0
2014-Oct-02 02:33N 35°27' E 139°39'0 0.0
2014-Oct-02 01:33N 35°27' E 139°39'0 0.0
2014-Oct-02 00:34N 35°27' E 139°39'0 0.0
2014-Oct-01 23:33N 35°27' E 139°39'1 1.0
2014-Oct-01 22:33N 35°27' E 139°40'3 3.3
2014-Oct-01 21:33N 35°27' E 139°44'3 3.0
2014-Oct-01 20:33N 35°27' E 139°41'1 1.0
2014-Oct-01 19:33N 35°28' E 139°41'0 0.0
2014-Oct-01 18:33N 35°28' E 139°41'0 0.0
2014-Oct-01 17:33N 35°28' E 139°41'0 0.0
2014-Oct-01 16:33N 35°28' E 139°41'0 0.0
2014-Oct-01 15:33N 35°28' E 139°41'4 4.0
2014-Oct-01 14:33N 35°24' E 139°41'1 0.6
2014-Oct-01 13:33N 35°24' E 139°41'0 0.4
2014-Oct-01 12:33N 35°24' E 139°41'0 0.0
2014-Oct-01 11:34N 35°24' E 139°41'1 0.8
2014-Oct-01 10:33N 35°25' E 139°42'2 1.9
2014-Oct-01 09:33N 35°26' E 139°43'3 3.5
2014-Oct-01 08:33N 35°27' E 139°39'0 0.0
2014-Oct-01 07:34N 35°27' E 139°39'0 0.0
2014-Oct-01 06:34N 35°27' E 139°39'0 0.0
2014-Oct-01 05:33N 35°27' E 139°39'0 0.0
2014-Oct-01 04:33N 35°27' E 139°39'0 0.0
2014-Oct-01 03:33N 35°27' E 139°39'0 0.0
2014-Oct-01 02:33N 35°27' E 139°39'1 0.8
2014-Oct-01 01:34N 35°27' E 139°38'0 0.0
2014-Oct-01 00:34N 35°27' E 139°38'0 0.0
2014-Sep-30 23:34N 35°27' E 139°38'0 0.0
2014-Sep-30 22:34N 35°27' E 139°38'0 0.0
2014-Sep-30 21:34N 35°27' E 139°38'0 0.0
2014-Sep-30 20:34N 35°27' E 139°38'0 0.0
2014-Sep-30 19:33N 35°27' E 139°38'0 0.0
2014-Sep-30 18:34N 35°27' E 139°38'0 0.0
2014-Sep-30 17:34N 35°27' E 139°38'0 0.0
2014-Sep-30 16:33N 35°27' E 139°38'0 0.0
2014-Sep-30 15:33N 35°27' E 139°38'0 0.0
2014-Sep-30 14:33N 35°27' E 139°38'0 0.0
2014-Sep-30 13:33N 35°27' E 139°38'0 0.0
2014-Sep-30 12:33N 35°27' E 139°38'0 0.0
2014-Sep-30 11:34N 35°27' E 139°38'0 0.0
2014-Sep-30 10:33N 35°27' E 139°38'0 0.0
2014-Sep-30 09:33N 35°27' E 139°38'0 0.0
2014-Sep-30 08:34N 35°27' E 139°38'0 0.0
2014-Sep-30 07:33N 35°27' E 139°38'0 0.1
2014-Sep-30 06:33N 35°27' E 139°39'0 0.0
2014-Sep-30 05:33N 35°27' E 139°39'0 0.0
2014-Sep-30 04:33N 35°27' E 139°39'1 0.7
2014-Sep-30 03:34N 35°27' E 139°39'0 0.0
2014-Sep-30 02:33N 35°27' E 139°39'2 2.1
2014-Sep-30 01:34N 35°26' E 139°42'3 2.8
2014-Sep-30 00:33N 35°24' E 139°39'3 2.5
2014-Sep-29 23:34N 35°26' E 139°42'2 2.0
2014-Sep-29 22:34N 35°28' E 139°41'2 1.7
2014-Sep-29 21:33N 35°26' E 139°42'3 3.2
2014-Sep-29 20:34N 35°27' E 139°38'0 0.1
2014-Sep-29 19:33N 35°27' E 139°38'0 0.0
2014-Sep-29 18:33N 35°27' E 139°38'0 0.0
2014-Sep-29 17:33N 35°27' E 139°38'0 0.0
2014-Sep-29 16:34N 35°27' E 139°38'0 0.0
2014-Sep-29 15:33N 35°27' E 139°38'0 0.0
2014-Sep-29 14:33N 35°27' E 139°38'0 0.0
2014-Sep-29 13:33N 35°27' E 139°38'0 0.0
2014-Sep-29 12:33N 35°27' E 139°38'0 0.0
2014-Sep-29 11:33N 35°27' E 139°38'0 0.0
2014-Sep-29 10:33N 35°27' E 139°38'0 0.0
2014-Sep-29 09:34N 35°27' E 139°38'0 0.0
2014-Sep-29 08:33N 35°27' E 139°38'0 0.0
2014-Sep-28 13:34N 35°27' E 139°38'0 0.0
2014-Sep-28 12:33N 35°27' E 139°38'0 0.0
2014-Sep-28 11:33N 35°27' E 139°38'0 0.0
2014-Sep-28 10:33N 35°27' E 139°38'0 0.0
2014-Sep-28 09:33N 35°27' E 139°38'0 0.0
2014-Sep-28 08:33N 35°27' E 139°38'0 0.0
2014-Sep-28 07:33N 35°27' E 139°38'0 0.0
2014-Sep-28 06:33N 35°27' E 139°38'0 0.0
2014-Sep-28 05:33N 35°27' E 139°38'0 0.0
2014-Sep-28 04:34N 35°27' E 139°38'0 0.0
2014-Sep-28 03:33N 35°27' E 139°38'0 0.0
2014-Sep-28 02:33N 35°27' E 139°38'0 0.0
2014-Sep-28 01:34N 35°27' E 139°38'0 0.0
2014-Sep-28 00:33N 35°27' E 139°38'2 2.3
2014-Sep-27 23:34N 35°26' E 139°41'1 1.0
2014-Sep-27 22:34N 35°26' E 139°42'1 0.8
2014-Sep-27 21:34N 35°26' E 139°42'0 0.0
2014-Sep-27 20:33N 35°26' E 139°42'2 2.3
2014-Sep-27 19:33N 35°28' E 139°40'0 0.0
2014-Sep-27 18:33N 35°28' E 139°40'0 0.0
2014-Sep-27 17:34N 35°28' E 139°40'0 0.0
2014-Sep-27 16:33N 35°28' E 139°40'2 1.6
2014-Sep-27 15:33N 35°27' E 139°42'0 0.4
2014-Sep-27 14:33N 35°26' E 139°42'1 0.6
2014-Sep-27 13:33N 35°26' E 139°41'2 2.0
2014-Sep-27 12:33N 35°27' E 139°43'2 1.8
2014-Sep-27 11:34N 35°28' E 139°41'2 2.2
2014-Sep-27 10:34N 35°27' E 139°39'4 3.8
2014-Sep-27 09:33N 35°24' E 139°41'2 1.6
2014-Sep-27 08:33N 35°25' E 139°42'2 1.5
2014-Sep-27 07:34N 35°24' E 139°41'2 2.3
2014-Sep-27 06:33N 35°27' E 139°41'0 0.3
2014-Sep-27 05:33N 35°26' E 139°41'1 1.5
2014-Sep-27 04:33N 35°27' E 139°39'0 0.0
2014-Sep-27 03:33N 35°27' E 139°39'0 0.0
2014-Sep-27 02:33N 35°27' E 139°39'2 1.7
2014-Sep-27 01:34N 35°27' E 139°41'1 0.7
2014-Sep-27 00:33N 35°26' E 139°42'0 0.4
2014-Sep-26 23:33N 35°27' E 139°42'2 2.0
2014-Sep-26 22:33N 35°25' E 139°41'1 0.9
2014-Sep-26 21:33N 35°26' E 139°42'3 3.2
2014-Sep-26 20:33N 35°27' E 139°38'0 0.0
2014-Sep-26 19:33N 35°27' E 139°38'0 0.0
2014-Sep-26 18:33N 35°27' E 139°38'0 0.0
2014-Sep-26 17:33N 35°27' E 139°38'0 0.0
2014-Sep-26 16:33N 35°27' E 139°38'0 0.0
2014-Sep-26 15:33N 35°27' E 139°38'0 0.0
2014-Sep-26 14:33N 35°27' E 139°38'0 0.0
2014-Sep-26 13:33N 35°27' E 139°38'0 0.0
2014-Sep-26 12:33N 35°27' E 139°38'0 0.0
2014-Sep-26 11:33N 35°27' E 139°38'0 0.0
2014-Sep-26 10:33N 35°27' E 139°38'0 0.0
2014-Sep-26 09:33N 35°27' E 139°38'0 0.0
2014-Sep-26 08:33N 35°27' E 139°38'0 0.0
2014-Sep-26 07:33N 35°27' E 139°38'1 0.7
2014-Sep-26 06:34N 35°27' E 139°39'0 0.1
2014-Sep-26 05:33N 35°27' E 139°39'0 0.0
2014-Sep-26 04:33N 35°27' E 139°39'3 1.5
2014-Sep-26 02:30N 35°27' E 139°43'1 1.0
2014-Sep-26 01:33N 35°27' E 139°44'2 1.8
2014-Sep-26 00:33N 35°28' E 139°42'0 0.0
2014-Sep-25 23:33N 35°28' E 139°42'1 0.5
2014-Sep-25 22:33N 35°28' E 139°41'2 2.1
2014-Sep-25 21:33N 35°27' E 139°44'3 3.4
2014-Sep-25 20:33N 35°27' E 139°39'1 0.7
2014-Sep-25 19:33N 35°27' E 139°39'0 0.0
2014-Sep-25 18:33N 35°27' E 139°39'0 0.0
2014-Sep-25 17:33N 35°27' E 139°39'0 0.0
2014-Sep-25 16:33N 35°27' E 139°39'0 0.0
2014-Sep-25 15:33N 35°27' E 139°39'0 0.0
2014-Sep-25 14:33N 35°27' E 139°39'0 0.0
2014-Sep-25 13:33N 35°27' E 139°39'0 0.0
2014-Sep-25 12:33N 35°27' E 139°39'0 0.0
2014-Sep-25 11:33N 35°27' E 139°39'0 0.0
2014-Sep-25 10:33N 35°27' E 139°39'0 0.0
2014-Sep-25 09:33N 35°27' E 139°39'3 3.1
2014-Sep-25 08:33N 35°28' E 139°42'2 1.6
2014-Sep-25 07:33N 35°28' E 139°41'0 0.0
2014-Sep-25 06:33N 35°28' E 139°41'0 0.0
2014-Sep-25 05:33N 35°28' E 139°41'1 1.0
2014-Sep-25 04:33N 35°27' E 139°39'0 0.0
2014-Sep-25 03:33N 35°27' E 139°39'0 0.0
2014-Sep-25 02:33N 35°27' E 139°39'0 0.0
2014-Sep-25 01:33N 35°27' E 139°39'2 1.8
2014-Sep-25 00:33N 35°28' E 139°41'2 2.0
2014-Sep-24 23:34N 35°27' E 139°43'4 3.8
2014-Sep-24 22:34N 35°28' E 139°39'0 0.2
2014-Sep-24 21:33N 35°27' E 139°38'0 0.0
2014-Sep-24 20:33N 35°27' E 139°38'0 0.0
2014-Sep-24 19:33N 35°27' E 139°38'0 0.0
2014-Sep-24 18:33N 35°27' E 139°38'0 0.0
2014-Sep-24 17:33N 35°27' E 139°38'0 0.0
2014-Sep-24 16:33N 35°27' E 139°38'0 0.0
2014-Sep-24 15:33N 35°27' E 139°38'0 0.0
2014-Sep-24 14:33N 35°27' E 139°38'0 0.0
2014-Sep-24 13:33N 35°27' E 139°38'0 0.0
2014-Sep-24 12:33N 35°27' E 139°38'0 0.0
2014-Sep-24 11:33N 35°27' E 139°38'0 0.0
2014-Sep-24 10:33N 35°27' E 139°38'0 0.0
2014-Sep-22 16:31N 35°27' E 139°38'0 0.0
2014-Sep-22 15:33N 35°27' E 139°38'0 0.0
2014-Sep-22 14:33N 35°27' E 139°38'0 0.0
2014-Sep-22 13:33N 35°27' E 139°38'0 0.0
2014-Sep-22 12:33N 35°27' E 139°38'0 0.0
2014-Sep-22 11:33N 35°27' E 139°38'0 0.0
2014-Sep-22 10:33N 35°27' E 139°38'0 0.0
2014-Sep-22 09:33N 35°27' E 139°38'0 0.0
2014-Sep-22 08:33N 35°27' E 139°38'0 0.0
2014-Sep-22 07:33N 35°27' E 139°38'0 0.0
2014-Sep-22 06:33N 35°27' E 139°38'0 0.0
2014-Sep-22 05:33N 35°27' E 139°38'0 0.0
2014-Sep-22 04:33N 35°27' E 139°38'  
Track history (hours):
 
Tides and Currents Weather Stations Pressure Air Temp Water Temp Dewpoint Dewpoint Depression Visibility Wind Speed Wind Dir Waves Ship Positions

Kyoto Maru

Last reported at 2014-Oct-02 03:34 UTC. Time now 2014-Oct-02 04:27 UTC.
Position N 35°27' E 139°39'.

Length 34 m; draft 3.8 m.

Type: Tug. MMSI: 431002219.

Date/timePositionNaut miles runAvg speedWind from/ knotsBaromVisibWave heightAir tempDewpointWater temp
2014-Oct-02 03:34N 35°27' E 139°39'0 0.0
2014-Oct-02 02:33N 35°27' E 139°39'0 0.0
2014-Oct-02 01:33N 35°27' E 139°39'0 0.0
2014-Oct-02 00:34N 35°27' E 139°39'0 0.0
2014-Oct-01 23:33N 35°27' E 139°39'1 1.0
2014-Oct-01 22:33N 35°27' E 139°40'3 3.3
2014-Oct-01 21:33N 35°27' E 139°44'3 3.0
2014-Oct-01 20:33N 35°27' E 139°41'1 1.0
2014-Oct-01 19:33N 35°28' E 139°41'0 0.0
2014-Oct-01 18:33N 35°28' E 139°41'0 0.0
2014-Oct-01 17:33N 35°28' E 139°41'0 0.0
2014-Oct-01 16:33N 35°28' E 139°41'0 0.0
2014-Oct-01 15:33N 35°28' E 139°41'4 4.0
2014-Oct-01 14:33N 35°24' E 139°41'1 0.6
2014-Oct-01 13:33N 35°24' E 139°41'0 0.4
2014-Oct-01 12:33N 35°24' E 139°41'0 0.0
2014-Oct-01 11:34N 35°24' E 139°41'1 0.8
2014-Oct-01 10:33N 35°25' E 139°42'2 1.9
2014-Oct-01 09:33N 35°26' E 139°43'3 3.5
2014-Oct-01 08:33N 35°27' E 139°39'0 0.0
2014-Oct-01 07:34N 35°27' E 139°39'0 0.0
2014-Oct-01 06:34N 35°27' E 139°39'0 0.0
2014-Oct-01 05:33N 35°27' E 139°39'0 0.0
2014-Oct-01 04:33N 35°27' E 139°39'0 0.0
2014-Oct-01 03:33N 35°27' E 139°39'0 0.0
2014-Oct-01 02:33N 35°27' E 139°39'1 0.8
2014-Oct-01 01:34N 35°27' E 139°38'0 0.0
2014-Oct-01 00:34N 35°27' E 139°38'0 0.0
2014-Sep-30 23:34N 35°27' E 139°38'0 0.0
2014-Sep-30 22:34N 35°27' E 139°38'0 0.0
2014-Sep-30 21:34N 35°27' E 139°38'0 0.0
2014-Sep-30 20:34N 35°27' E 139°38'0 0.0
2014-Sep-30 19:33N 35°27' E 139°38'0 0.0
2014-Sep-30 18:34N 35°27' E 139°38'0 0.0
2014-Sep-30 17:34N 35°27' E 139°38'0 0.0
2014-Sep-30 16:33N 35°27' E 139°38'0 0.0
2014-Sep-30 15:33N 35°27' E 139°38'0 0.0
2014-Sep-30 14:33N 35°27' E 139°38'0 0.0
2014-Sep-30 13:33N 35°27' E 139°38'0 0.0
2014-Sep-30 12:33N 35°27' E 139°38'0 0.0
2014-Sep-30 11:34N 35°27' E 139°38'0 0.0
2014-Sep-30 10:33N 35°27' E 139°38'0 0.0
2014-Sep-30 09:33N 35°27' E 139°38'0 0.0
2014-Sep-30 08:34N 35°27' E 139°38'0 0.0
2014-Sep-30 07:33N 35°27' E 139°38'0 0.1
2014-Sep-30 06:33N 35°27' E 139°39'0 0.0
2014-Sep-30 05:33N 35°27' E 139°39'0 0.0
2014-Sep-30 04:33N 35°27' E 139°39'1 0.7
2014-Sep-30 03:34N 35°27' E 139°39'0 0.0
2014-Sep-30 02:33N 35°27' E 139°39'2 2.1
2014-Sep-30 01:34N 35°26' E 139°42'3 2.8
2014-Sep-30 00:33N 35°24' E 139°39'3 2.5
2014-Sep-29 23:34N 35°26' E 139°42'2 2.0
2014-Sep-29 22:34N 35°28' E 139°41'2 1.7
2014-Sep-29 21:33N 35°26' E 139°42'3 3.2
2014-Sep-29 20:34N 35°27' E 139°38'0 0.1
2014-Sep-29 19:33N 35°27' E 139°38'0 0.0
2014-Sep-29 18:33N 35°27' E 139°38'0 0.0
2014-Sep-29 17:33N 35°27' E 139°38'0 0.0
2014-Sep-29 16:34N 35°27' E 139°38'0 0.0
2014-Sep-29 15:33N 35°27' E 139°38'0 0.0
2014-Sep-29 14:33N 35°27' E 139°38'0 0.0
2014-Sep-29 13:33N 35°27' E 139°38'0 0.0
2014-Sep-29 12:33N 35°27' E 139°38'0 0.0
2014-Sep-29 11:33N 35°27' E 139°38'0 0.0
2014-Sep-29 10:33N 35°27' E 139°38'0 0.0
2014-Sep-29 09:34N 35°27' E 139°38'0 0.0
2014-Sep-29 08:33N 35°27' E 139°38'0 0.0
2014-Sep-28 13:34N 35°27' E 139°38'0 0.0
2014-Sep-28 12:33N 35°27' E 139°38'0 0.0
2014-Sep-28 11:33N 35°27' E 139°38'0 0.0
2014-Sep-28 10:33N 35°27' E 139°38'0 0.0
2014-Sep-28 09:33N 35°27' E 139°38'0 0.0
2014-Sep-28 08:33N 35°27' E 139°38'0 0.0
2014-Sep-28 07:33N 35°27' E 139°38'0 0.0
2014-Sep-28 06:33N 35°27' E 139°38'0 0.0
2014-Sep-28 05:33N 35°27' E 139°38'0 0.0
2014-Sep-28 04:34N 35°27' E 139°38'0 0.0
2014-Sep-28 03:33N 35°27' E 139°38'0 0.0
2014-Sep-28 02:33N 35°27' E 139°38'0 0.0
2014-Sep-28 01:34N 35°27' E 139°38'0 0.0
2014-Sep-28 00:33N 35°27' E 139°38'2 2.3
2014-Sep-27 23:34N 35°26' E 139°41'1 1.0
2014-Sep-27 22:34N 35°26' E 139°42'1 0.8
2014-Sep-27 21:34N 35°26' E 139°42'0 0.0
2014-Sep-27 20:33N 35°26' E 139°42'2 2.3
2014-Sep-27 19:33N 35°28' E 139°40'0 0.0
2014-Sep-27 18:33N 35°28' E 139°40'0 0.0
2014-Sep-27 17:34N 35°28' E 139°40'0 0.0
2014-Sep-27 16:33N 35°28' E 139°40'2 1.6
2014-Sep-27 15:33N 35°27' E 139°42'0 0.4
2014-Sep-27 14:33N 35°26' E 139°42'1 0.6
2014-Sep-27 13:33N 35°26' E 139°41'2 2.0
2014-Sep-27 12:33N 35°27' E 139°43'2 1.8
2014-Sep-27 11:34N 35°28' E 139°41'2 2.2
2014-Sep-27 10:34N 35°27' E 139°39'4 3.8
2014-Sep-27 09:33N 35°24' E 139°41'2 1.6
2014-Sep-27 08:33N 35°25' E 139°42'2 1.5
2014-Sep-27 07:34N 35°24' E 139°41'2 2.3
2014-Sep-27 06:33N 35°27' E 139°41'0 0.3
2014-Sep-27 05:33N 35°26' E 139°41'1 1.5
2014-Sep-27 04:33N 35°27' E 139°39'0 0.0
2014-Sep-27 03:33N 35°27' E 139°39'0 0.0
2014-Sep-27 02:33N 35°27' E 139°39'2 1.7
2014-Sep-27 01:34N 35°27' E 139°41'1 0.7
2014-Sep-27 00:33N 35°26' E 139°42'0 0.4
2014-Sep-26 23:33N 35°27' E 139°42'2 2.0
2014-Sep-26 22:33N 35°25' E 139°41'1 0.9
2014-Sep-26 21:33N 35°26' E 139°42'3 3.2
2014-Sep-26 20:33N 35°27' E 139°38'0 0.0
2014-Sep-26 19:33N 35°27' E 139°38'0 0.0
2014-Sep-26 18:33N 35°27' E 139°38'0 0.0
2014-Sep-26 17:33N 35°27' E 139°38'0 0.0
2014-Sep-26 16:33N 35°27' E 139°38'0 0.0
2014-Sep-26 15:33N 35°27' E 139°38'0 0.0
2014-Sep-26 14:33N 35°27' E 139°38'0 0.0
2014-Sep-26 13:33N 35°27' E 139°38'0 0.0
2014-Sep-26 12:33N 35°27' E 139°38'0 0.0
2014-Sep-26 11:33N 35°27' E 139°38'0 0.0
2014-Sep-26 10:33N 35°27' E 139°38'0 0.0
2014-Sep-26 09:33N 35°27' E 139°38'0 0.0
2014-Sep-26 08:33N 35°27' E 139°38'0 0.0
2014-Sep-26 07:33N 35°27' E 139°38'1 0.7
2014-Sep-26 06:34N 35°27' E 139°39'0 0.1
2014-Sep-26 05:33N 35°27' E 139°39'0 0.0
2014-Sep-26 04:33N 35°27' E 139°39'3 1.5
2014-Sep-26 02:30N 35°27' E 139°43'1 1.0
2014-Sep-26 01:33N 35°27' E 139°44'2 1.8
2014-Sep-26 00:33N 35°28' E 139°42'0 0.0
2014-Sep-25 23:33N 35°28' E 139°42'1 0.5
2014-Sep-25 22:33N 35°28' E 139°41'2 2.1
2014-Sep-25 21:33N 35°27' E 139°44'3 3.4
2014-Sep-25 20:33N 35°27' E 139°39'1 0.7
2014-Sep-25 19:33N 35°27' E 139°39'0 0.0
2014-Sep-25 18:33N 35°27' E 139°39'0 0.0
2014-Sep-25 17:33N 35°27' E 139°39'0 0.0
2014-Sep-25 16:33N 35°27' E 139°39'0 0.0
2014-Sep-25 15:33N 35°27' E 139°39'0 0.0
2014-Sep-25 14:33N 35°27' E 139°39'0 0.0
2014-Sep-25 13:33N 35°27' E 139°39'0 0.0
2014-Sep-25 12:33N 35°27' E 139°39'0 0.0
2014-Sep-25 11:33N 35°27' E 139°39'0 0.0
2014-Sep-25 10:33N 35°27' E 139°39'0 0.0
2014-Sep-25 09:33N 35°27' E 139°39'3 3.1
2014-Sep-25 08:33N 35°28' E 139°42'2 1.6
2014-Sep-25 07:33N 35°28' E 139°41'0 0.0
2014-Sep-25 06:33N 35°28' E 139°41'0 0.0
2014-Sep-25 05:33N 35°28' E 139°41'1 1.0
2014-Sep-25 04:33N 35°27' E 139°39'0 0.0
2014-Sep-25 03:33N 35°27' E 139°39'0 0.0
2014-Sep-25 02:33N 35°27' E 139°39'0 0.0
2014-Sep-25 01:33N 35°27' E 139°39'2 1.8
2014-Sep-25 00:33N 35°28' E 139°41'2 2.0
2014-Sep-24 23:34N 35°27' E 139°43'4 3.8
2014-Sep-24 22:34N 35°28' E 139°39'0 0.2
2014-Sep-24 21:33N 35°27' E 139°38'0 0.0
2014-Sep-24 20:33N 35°27' E 139°38'0 0.0
2014-Sep-24 19:33N 35°27' E 139°38'0 0.0
2014-Sep-24 18:33N 35°27' E 139°38'0 0.0
2014-Sep-24 17:33N 35°27' E 139°38'0 0.0
2014-Sep-24 16:33N 35°27' E 139°38'0 0.0
2014-Sep-24 15:33N 35°27' E 139°38'0 0.0
2014-Sep-24 14:33N 35°27' E 139°38'0 0.0
2014-Sep-24 13:33N 35°27' E 139°38'0 0.0
2014-Sep-24 12:33N 35°27' E 139°38'0 0.0
2014-Sep-24 11:33N 35°27' E 139°38'0 0.0
2014-Sep-24 10:33N 35°27' E 139°38'0 0.0
2014-Sep-22 16:31N 35°27' E 139°38'0 0.0
2014-Sep-22 15:33N 35°27' E 139°38'0 0.0
2014-Sep-22 14:33N 35°27' E 139°38'0 0.0
2014-Sep-22 13:33N 35°27' E 139°38'0 0.0
2014-Sep-22 12:33N 35°27' E 139°38'0 0.0
2014-Sep-22 11:33N 35°27' E 139°38'0 0.0
2014-Sep-22 10:33N 35°27' E 139°38'0 0.0
2014-Sep-22 09:33N 35°27' E 139°38'0 0.0
2014-Sep-22 08:33N 35°27' E 139°38'0 0.0
2014-Sep-22 07:33N 35°27' E 139°38'0 0.0
2014-Sep-22 06:33N 35°27' E 139°38'0 0.0
2014-Sep-22 05:33N 35°27' E 139°38'0 0.0
2014-Sep-22 04:33N 35°27' E 139°38'  

Dump ship's entire track history